createdAt,value
2022-09-17T00:00:49.222Z,16.38
2022-09-17T00:03:38.795Z,19.20
2022-09-17T00:06:28.284Z,17.95
2022-09-17T00:09:18.082Z,16.15
2022-09-17T00:12:07.583Z,18.27
2022-09-17T00:14:57.109Z,18.73
2022-09-17T00:17:46.370Z,16.65
2022-09-17T00:20:40.869Z,17.33
2022-09-17T00:23:30.585Z,16.90
2022-09-17T00:26:19.901Z,18.88
2022-09-17T00:29:10.007Z,16.58
2022-09-17T00:31:59.392Z,18.55
2022-09-17T00:34:50.341Z,32.50
2022-09-17T00:37:39.565Z,19.45
2022-09-17T00:40:28.994Z,17.58
2022-09-17T00:43:34.333Z,15.73
2022-09-17T00:46:54.560Z,16.17
2022-09-17T00:49:44.823Z,15.80
2022-09-17T00:52:48.507Z,17.48
2022-09-17T00:56:06.157Z,17.10
2022-09-17T00:58:57.135Z,15.32
2022-09-17T01:01:47.427Z,15.38
2022-09-17T01:04:37.523Z,16.42
2022-09-17T01:07:41.463Z,17.10
2022-09-17T01:10:54.041Z,15.38
2022-09-17T01:14:07.750Z,14.63
2022-09-17T01:17:28.007Z,15.38
2022-09-17T01:20:27.201Z,14.55
2022-09-17T01:23:46.161Z,16.23
2022-09-17T01:27:10.418Z,16.55
2022-09-17T01:30:33.432Z,15.98
2022-09-17T01:33:52.018Z,17.75
2022-09-17T01:37:05.608Z,15.02
2022-09-17T01:40:05.682Z,13.85
2022-09-17T01:43:06.709Z,14.88
2022-09-17T01:46:06.652Z,14.63
2022-09-17T01:49:00.940Z,17.88
2022-09-17T01:51:51.938Z,15.00
2022-09-17T01:54:55.150Z,16.45
2022-09-17T01:57:51.355Z,15.90
2022-09-17T02:00:43.436Z,13.48
2022-09-17T02:04:07.749Z,16.40
2022-09-17T02:07:08.102Z,14.88
2022-09-17T02:10:15.674Z,14.73
2022-09-17T02:13:18.218Z,14.27
2022-09-17T02:16:12.227Z,15.18
2022-09-17T02:19:07.863Z,14.88
2022-09-17T02:22:23.444Z,14.13
2022-09-17T02:25:23.675Z,14.68
2022-09-17T02:28:44.659Z,14.63
2022-09-17T02:31:34.249Z,14.13
2022-09-17T02:34:27.580Z,14.23
2022-09-17T02:37:17.121Z,14.00
2022-09-17T02:40:07.821Z,14.82
2022-09-17T02:43:19.108Z,14.70
2022-09-17T02:46:17.804Z,14.15
2022-09-17T02:49:16.001Z,16.77
2022-09-17T02:52:41.943Z,15.52
2022-09-17T02:55:54.452Z,15.38
2022-09-17T02:59:22.847Z,16.13
2022-09-17T03:02:29.550Z,13.68
2022-09-17T03:05:23.493Z,15.43
2022-09-17T03:08:15.540Z,14.82
2022-09-17T03:11:06.980Z,13.57
2022-09-17T03:13:56.249Z,16.95
2022-09-17T03:16:46.200Z,14.68
2022-09-17T03:19:35.536Z,14.27
2022-09-17T03:22:24.984Z,13.27
2022-09-17T03:25:14.475Z,16.92
2022-09-17T03:28:04.112Z,13.48
2022-09-17T03:30:53.810Z,12.75
2022-09-17T03:33:43.222Z,13.45
2022-09-17T03:36:32.938Z,13.38
2022-09-17T03:39:22.252Z,15.18
2022-09-17T03:42:12.034Z,13.75
2022-09-17T03:45:01.404Z,12.23
2022-09-17T03:47:50.910Z,11.82
2022-09-17T03:50:40.245Z,13.40
2022-09-17T03:53:29.540Z,13.68
2022-09-17T03:56:18.896Z,13.90
2022-09-17T03:59:08.427Z,13.75
2022-09-17T04:01:58.868Z,14.50
2022-09-17T04:04:48.663Z,12.30
2022-09-17T04:07:37.932Z,13.70
2022-09-17T04:10:27.681Z,13.75
2022-09-17T04:13:17.926Z,11.27
2022-09-17T04:16:07.553Z,11.80
2022-09-17T04:18:57.213Z,11.65
2022-09-17T04:21:46.612Z,13.35
2022-09-17T04:24:35.933Z,10.85
2022-09-17T04:27:25.402Z,12.20
2022-09-17T04:30:15.621Z,11.35
2022-09-17T04:33:05.976Z,12.35
2022-09-17T04:35:55.701Z,11.88
2022-09-17T04:38:44.977Z,9.82
2022-09-17T04:41:35.042Z,11.15
2022-09-17T04:44:24.401Z,13.15
2022-09-17T04:47:13.684Z,11.20
2022-09-17T04:50:02.975Z,9.52
2022-09-17T04:52:57.361Z,10.43
2022-09-17T04:56:07.122Z,10.65
2022-09-17T04:58:56.428Z,10.90
2022-09-17T05:01:46.272Z,11.73
2022-09-17T05:04:35.673Z,10.57
2022-09-17T05:07:25.469Z,10.90
2022-09-17T05:10:16.818Z,10.10
2022-09-17T05:13:06.117Z,10.75
2022-09-17T05:15:57.718Z,9.95
2022-09-17T05:18:47.116Z,10.02
2022-09-17T05:21:36.555Z,9.43
2022-09-17T05:24:26.102Z,10.68
2022-09-17T05:27:15.591Z,10.25
2022-09-17T05:30:05.356Z,10.10
2022-09-17T05:33:02.320Z,10.48
2022-09-17T05:35:51.713Z,12.80
2022-09-17T05:38:41.298Z,9.45
2022-09-17T05:41:30.645Z,9.90
2022-09-17T05:44:20.715Z,12.23
2022-09-17T05:47:09.928Z,7.88
2022-09-17T05:49:59.201Z,8.70
2022-09-17T05:52:48.788Z,8.45
2022-09-17T05:55:38.157Z,9.18
2022-09-17T05:58:28.662Z,9.70
2022-09-17T06:01:18.190Z,7.63
2022-09-17T06:04:07.669Z,8.30
2022-09-17T06:06:57.225Z,9.60
2022-09-17T06:09:47.066Z,10.55
2022-09-17T06:12:39.058Z,9.00
2022-09-17T06:15:29.389Z,9.63
2022-09-17T06:18:19.147Z,7.65
2022-09-17T06:21:08.634Z,7.68
2022-09-17T06:23:58.017Z,8.20
2022-09-17T06:26:47.444Z,9.63
2022-09-17T06:29:36.726Z,7.97
2022-09-17T06:32:26.407Z,7.38
2022-09-17T06:35:16.049Z,8.27
2022-09-17T06:38:09.031Z,8.73
2022-09-17T06:40:58.426Z,9.25
2022-09-17T06:43:47.789Z,9.18
2022-09-17T06:46:37.471Z,7.25
2022-09-17T06:49:26.813Z,7.93
2022-09-17T06:52:16.161Z,7.25
2022-09-17T06:55:06.151Z,7.50
2022-09-17T06:57:55.573Z,6.38
2022-09-17T07:00:45.351Z,6.50
2022-09-17T07:03:35.324Z,9.30
2022-09-17T07:06:24.886Z,8.05
2022-09-17T07:09:14.828Z,7.10
2022-09-17T07:12:08.015Z,6.78
2022-09-17T07:14:57.404Z,8.18
2022-09-17T07:17:47.697Z,7.78
2022-09-17T07:20:37.255Z,8.45
2022-09-17T07:23:28.842Z,7.25
2022-09-17T07:26:18.757Z,7.67
2022-09-17T07:29:09.145Z,6.75
2022-09-17T07:32:00.510Z,7.82
2022-09-17T07:34:53.215Z,7.65
2022-09-17T07:37:42.991Z,7.25
2022-09-17T07:40:32.382Z,7.68
2022-09-17T07:43:22.161Z,7.28
2022-09-17T07:46:20.564Z,7.30
2022-09-17T07:49:10.081Z,7.22
2022-09-17T07:52:01.058Z,6.63
2022-09-17T07:54:50.388Z,7.93
2022-09-17T07:57:39.829Z,6.97
2022-09-17T08:00:29.297Z,8.02
2022-09-17T08:03:19.357Z,9.07
2022-09-17T08:06:11.497Z,7.65
2022-09-17T08:09:01.628Z,7.45
2022-09-17T08:11:55.984Z,7.22
2022-09-17T08:14:46.093Z,6.93
2022-09-17T08:17:35.428Z,5.63
2022-09-17T08:20:27.223Z,6.07
2022-09-17T08:23:16.571Z,6.45
2022-09-17T08:26:09.778Z,6.95
2022-09-17T08:28:59.573Z,5.68
2022-09-17T08:31:49.359Z,7.35
2022-09-17T08:34:38.720Z,7.40
2022-09-17T08:37:33.249Z,5.60
2022-09-17T08:40:24.065Z,7.78
2022-09-17T08:43:19.071Z,6.20
2022-09-17T08:46:13.023Z,7.40
2022-09-17T08:49:27.532Z,5.45
2022-09-17T08:52:37.923Z,7.00
2022-09-17T08:55:42.089Z,6.05
2022-09-17T08:58:42.215Z,7.50
2022-09-17T09:01:35.091Z,6.88
2022-09-17T09:04:51.769Z,7.63
2022-09-17T09:07:52.449Z,6.72
2022-09-17T09:11:28.556Z,5.80
2022-09-17T09:14:26.454Z,5.40
2022-09-17T09:17:19.128Z,7.38
2022-09-17T09:20:26.155Z,6.88
2022-09-17T09:23:49.712Z,7.32
2022-09-17T09:26:48.965Z,6.30
2022-09-17T09:29:44.883Z,7.85
2022-09-17T09:33:04.250Z,4.40
2022-09-17T09:35:53.693Z,5.70
2022-09-17T09:38:57.766Z,6.55
2022-09-17T09:41:55.589Z,6.10
2022-09-17T09:44:45.115Z,7.80
2022-09-17T09:47:40.600Z,7.57
2022-09-17T09:51:05.294Z,5.05
2022-09-17T09:54:04.629Z,7.10
2022-09-17T09:57:06.399Z,5.00
2022-09-17T10:00:27.888Z,5.68
2022-09-17T10:03:22.256Z,6.93
2022-09-17T10:06:13.441Z,7.35
2022-09-17T10:09:05.780Z,6.72
2022-09-17T10:12:17.039Z,7.85
2022-09-17T10:15:26.044Z,7.05
2022-09-17T10:18:22.835Z,7.88
2022-09-17T10:21:32.943Z,7.45
2022-09-17T10:24:34.799Z,6.20
2022-09-17T10:27:25.854Z,6.47
2022-09-17T10:30:18.361Z,7.40
2022-09-17T10:36:11.089Z,7.93
2022-09-17T10:39:32.001Z,6.60
2022-09-17T10:42:22.103Z,7.68
2022-09-17T10:45:26.482Z,5.22
2022-09-17T10:48:19.274Z,6.78
2022-09-17T10:51:11.704Z,5.20
2022-09-17T10:54:08.564Z,5.95
2022-09-17T10:57:02.401Z,7.22
2022-09-17T11:00:22.120Z,8.38
2022-09-17T11:03:23.867Z,6.35
2022-09-17T11:06:14.626Z,5.40
2022-09-17T11:09:19.057Z,5.82
2022-09-17T11:12:39.152Z,6.10
2022-09-17T11:15:52.185Z,6.43
2022-09-17T11:18:47.225Z,8.52
2022-09-17T11:21:39.665Z,5.90
2022-09-17T11:24:49.795Z,6.32
2022-09-17T11:28:06.897Z,8.90
2022-09-17T11:31:21.703Z,8.40
2022-09-17T11:34:18.921Z,7.78
2022-09-17T11:37:21.783Z,7.32
2022-09-17T11:40:48.520Z,7.78
2022-09-17T11:43:46.012Z,5.40
2022-09-17T11:46:49.088Z,7.18
2022-09-17T11:49:48.037Z,4.93
2022-09-17T11:52:58.882Z,6.13
2022-09-17T11:56:24.722Z,6.28
2022-09-17T11:59:25.360Z,6.28
2022-09-17T12:02:26.824Z,6.05
2022-09-17T12:05:31.363Z,6.53
2022-09-17T12:08:23.286Z,6.88
2022-09-17T12:11:42.761Z,4.82
2022-09-17T12:15:10.869Z,5.30
2022-09-17T12:18:31.848Z,6.65
2022-09-17T12:21:38.193Z,5.35
2022-09-17T12:24:28.969Z,8.45
2022-09-17T12:27:50.634Z,9.43
2022-09-17T12:30:50.694Z,11.38
2022-09-17T12:33:50.184Z,7.03
2022-09-17T12:36:53.003Z,7.80
2022-09-17T12:42:59.437Z,6.63
2022-09-17T12:46:06.820Z,9.00
2022-09-17T12:49:27.115Z,10.50
2022-09-17T12:52:37.834Z,5.47
2022-09-17T12:55:45.457Z,11.25
2022-09-17T12:59:11.680Z,10.60
2022-09-17T13:02:27.522Z,7.20
2022-09-17T13:05:52.422Z,10.73
2022-09-17T13:09:00.277Z,7.93
2022-09-17T13:12:06.056Z,9.38
2022-09-17T13:14:58.053Z,9.98
2022-09-17T13:18:26.687Z,7.97
2022-09-17T13:21:31.974Z,7.22
2022-09-17T13:24:26.080Z,8.55
2022-09-17T13:27:27.384Z,7.82
2022-09-17T13:30:19.092Z,10.32
2022-09-17T13:33:08.804Z,8.90
2022-09-17T13:35:58.177Z,11.10
2022-09-17T13:38:48.161Z,10.55
2022-09-17T13:41:41.951Z,8.52
2022-09-17T13:44:31.444Z,9.98
2022-09-17T13:47:29.355Z,7.97
2022-09-17T13:50:40.325Z,7.43
2022-09-17T13:53:29.728Z,8.15
2022-09-17T13:56:36.173Z,12.93
2022-09-17T13:59:29.046Z,11.80
2022-09-17T14:02:18.431Z,6.03
2022-09-17T14:05:31.114Z,7.68
2022-09-17T14:08:31.518Z,6.50
2022-09-17T14:11:27.915Z,7.13
2022-09-17T14:14:49.441Z,10.30
2022-09-17T14:17:53.082Z,11.68
2022-09-17T14:20:42.670Z,8.23
2022-09-17T14:23:33.312Z,5.55
2022-09-17T14:27:16.402Z,9.88
2022-09-17T14:30:20.539Z,9.57
2022-09-17T14:33:22.099Z,8.85
2022-09-17T14:36:17.095Z,9.95
2022-09-17T14:39:13.788Z,8.82
2022-09-17T14:42:03.522Z,7.30
2022-09-17T14:45:15.393Z,11.27
2022-09-17T14:48:30.311Z,11.02
2022-09-17T14:51:19.650Z,9.20
2022-09-17T14:54:15.988Z,9.60
2022-09-17T14:57:25.268Z,8.93
2022-09-17T15:00:26.156Z,9.48
2022-09-17T15:03:23.765Z,7.82
2022-09-17T15:06:22.550Z,9.63
2022-09-17T15:09:29.133Z,8.95
2022-09-17T15:12:20.241Z,6.97
2022-09-17T15:15:23.476Z,8.93
2022-09-17T15:21:08.476Z,7.47
2022-09-17T15:24:05.121Z,9.02
2022-09-17T15:26:59.635Z,8.95
2022-09-17T15:29:53.036Z,7.38
2022-09-17T15:33:02.480Z,11.15
2022-09-17T15:36:03.522Z,9.77
2022-09-17T15:38:53.441Z,8.95
2022-09-17T15:41:42.941Z,6.95
2022-09-17T15:44:33.031Z,8.38
2022-09-17T15:47:50.642Z,11.50
2022-09-17T15:50:54.453Z,8.32
2022-09-17T15:53:54.357Z,7.93
2022-09-17T15:56:45.473Z,8.43
2022-09-17T15:59:36.973Z,8.45
2022-09-17T16:02:31.980Z,17.02
2022-09-17T16:05:28.957Z,10.05
2022-09-17T16:08:23.539Z,11.68
2022-09-17T16:11:12.991Z,11.30
2022-09-17T16:14:02.893Z,12.45
2022-09-17T16:16:53.195Z,6.60
2022-09-17T16:19:43.556Z,6.93
2022-09-17T16:22:33.039Z,7.43
2022-09-17T16:25:30.004Z,10.55
2022-09-17T16:28:21.510Z,7.32
2022-09-17T16:31:15.168Z,8.77
2022-09-17T16:34:04.674Z,6.10
2022-09-17T16:36:54.229Z,5.72
2022-09-17T16:39:43.648Z,17.85
2022-09-17T16:42:34.028Z,12.55
2022-09-17T16:45:28.068Z,11.40
2022-09-17T16:48:18.837Z,7.07
2022-09-17T16:51:12.977Z,12.57
2022-09-17T16:54:02.279Z,7.18
2022-09-17T16:56:52.593Z,15.27
2022-09-17T16:59:42.104Z,5.35
2022-09-17T17:02:31.763Z,8.02
2022-09-17T17:05:21.305Z,9.43
2022-09-17T17:08:11.574Z,9.88
2022-09-17T17:11:01.589Z,10.65
2022-09-17T17:13:50.919Z,8.75
2022-09-17T17:16:41.945Z,9.13
2022-09-17T17:19:32.007Z,7.60
2022-09-17T17:22:21.943Z,8.02
2022-09-17T17:25:13.892Z,6.20
2022-09-17T17:28:03.525Z,8.13
2022-09-17T17:30:52.986Z,9.68
2022-09-17T17:33:42.597Z,8.45
2022-09-17T17:36:33.190Z,7.97
2022-09-17T17:39:22.529Z,8.80
2022-09-17T17:42:11.945Z,9.48
2022-09-17T17:45:02.001Z,8.30
2022-09-17T17:47:51.444Z,8.18
2022-09-17T17:50:40.913Z,11.32
2022-09-17T17:53:30.456Z,9.00
2022-09-17T17:56:21.684Z,7.72
2022-09-17T17:59:11.145Z,9.90
2022-09-17T18:02:00.920Z,8.05
2022-09-17T18:04:50.422Z,8.93
2022-09-17T18:07:39.868Z,7.70
2022-09-17T18:10:29.195Z,7.60
2022-09-17T18:13:18.771Z,11.23
2022-09-17T18:16:10.137Z,4.57
2022-09-17T18:19:00.046Z,9.73
2022-09-17T18:21:49.415Z,10.68
2022-09-17T18:24:38.801Z,9.55
2022-09-17T18:27:29.188Z,7.97
2022-09-17T18:30:18.905Z,8.63
2022-09-17T18:33:08.178Z,24.42
2022-09-17T18:36:02.941Z,17.73
2022-09-17T18:39:10.906Z,18.17
2022-09-17T18:42:09.088Z,20.80
2022-09-17T18:44:58.416Z,13.68
2022-09-17T18:47:47.756Z,15.82
2022-09-17T18:50:37.389Z,15.10
2022-09-17T18:53:28.670Z,14.63
2022-09-17T18:56:23.057Z,12.35
2022-09-17T18:59:14.487Z,14.95
2022-09-17T19:02:04.520Z,17.25
2022-09-17T19:04:54.112Z,8.57
2022-09-17T19:07:48.188Z,13.65
2022-09-17T19:10:37.764Z,12.95
2022-09-17T19:13:28.133Z,10.10
2022-09-17T19:16:18.304Z,12.82
2022-09-17T19:19:07.863Z,8.55
2022-09-17T19:21:57.276Z,11.52
2022-09-17T19:24:46.800Z,9.25
2022-09-17T19:27:36.186Z,8.88
2022-09-17T19:30:26.107Z,11.07
2022-09-17T19:33:15.669Z,9.63
2022-09-17T19:36:12.746Z,11.23
2022-09-17T19:39:02.016Z,7.95
2022-09-17T19:41:51.348Z,12.82
2022-09-17T19:44:40.886Z,9.52
2022-09-17T19:47:30.560Z,11.98
2022-09-17T19:50:20.347Z,10.85
2022-09-17T19:53:09.759Z,8.95
2022-09-17T19:55:59.234Z,11.50
2022-09-17T19:58:49.032Z,9.20
2022-09-17T20:01:38.723Z,8.98
2022-09-17T20:04:28.184Z,9.27
2022-09-17T20:07:17.682Z,9.45
2022-09-17T20:10:07.429Z,8.32
2022-09-17T20:12:57.173Z,8.30
2022-09-17T20:15:46.567Z,9.65
2022-09-17T20:18:37.201Z,8.60
2022-09-17T20:21:30.038Z,9.45
2022-09-17T20:24:20.722Z,14.50
2022-09-17T20:27:10.299Z,12.98
2022-09-17T20:30:00.195Z,7.07
2022-09-17T20:32:49.836Z,8.30
2022-09-17T20:35:39.041Z,5.25
2022-09-17T20:41:42.549Z,9.38
2022-09-17T20:44:32.059Z,9.85
2022-09-17T20:47:21.440Z,7.40
2022-09-17T20:50:10.785Z,9.07
2022-09-17T20:53:00.017Z,7.75
2022-09-17T20:55:57.461Z,9.10
2022-09-17T20:58:54.670Z,8.32
2022-09-17T21:01:46.130Z,7.50
2022-09-17T21:04:35.555Z,9.50
2022-09-17T21:07:24.795Z,9.43
2022-09-17T21:10:14.510Z,6.82
2022-09-17T21:13:04.050Z,8.13
2022-09-17T21:16:01.054Z,7.95
2022-09-17T21:18:50.790Z,7.10
2022-09-17T21:21:40.321Z,11.30
2022-09-17T21:24:29.921Z,7.05
2022-09-17T21:27:19.859Z,7.32
2022-09-17T21:30:10.725Z,9.95
2022-09-17T21:33:02.157Z,9.68
2022-09-17T21:35:52.248Z,9.15
2022-09-17T21:38:42.355Z,8.68
2022-09-17T21:41:32.135Z,6.35
2022-09-17T21:44:24.760Z,9.27
2022-09-17T21:47:14.277Z,6.03
2022-09-17T21:50:03.784Z,8.88
2022-09-17T21:52:54.097Z,8.57
2022-09-17T21:55:43.520Z,7.65
2022-09-17T21:58:33.312Z,8.05
2022-09-17T22:01:28.266Z,6.82
2022-09-17T22:04:20.321Z,8.10
2022-09-17T22:07:09.533Z,7.18
2022-09-17T22:09:59.239Z,9.18
2022-09-17T22:12:48.660Z,6.15
2022-09-17T22:15:38.166Z,10.77
2022-09-17T22:18:28.715Z,7.72
2022-09-17T22:21:24.635Z,11.15
2022-09-17T22:24:15.202Z,5.68
2022-09-17T22:27:04.641Z,5.68
2022-09-17T22:29:54.101Z,9.63
2022-09-17T22:32:43.720Z,8.93
2022-09-17T22:35:36.180Z,6.03
2022-09-17T22:41:17.121Z,9.70
2022-09-17T22:44:09.196Z,6.03
2022-09-17T22:46:58.561Z,11.30
2022-09-17T22:49:48.069Z,9.02
2022-09-17T22:52:37.624Z,8.50
2022-09-17T22:55:26.949Z,6.85
2022-09-17T22:58:16.257Z,7.15
2022-09-17T23:01:30.054Z,6.63
2022-09-17T23:04:19.724Z,8.15
2022-09-17T23:07:09.249Z,10.57
2022-09-17T23:09:58.905Z,4.05
2022-09-17T23:12:48.234Z,7.53
2022-09-17T23:15:39.073Z,8.35
2022-09-17T23:18:28.407Z,13.82
2022-09-17T23:21:22.548Z,8.63
2022-09-17T23:24:19.780Z,5.22
2022-09-17T23:27:09.248Z,6.25
2022-09-17T23:30:00.748Z,4.40
2022-09-17T23:32:55.249Z,3.97
2022-09-17T23:35:44.665Z,6.72
2022-09-17T23:38:37.248Z,6.70
2022-09-17T23:41:29.144Z,11.75
2022-09-17T23:44:18.964Z,6.13
2022-09-17T23:47:08.800Z,6.07
2022-09-17T23:49:58.085Z,7.32
2022-09-17T23:52:47.381Z,8.43
2022-09-17T23:55:36.972Z,5.20
2022-09-17T23:58:26.236Z,5.57
